LWSK Airport Information

Runway Information
Runway 16 Length 8038 ft width 140 ft
Elevation 781 ft Threshold 0 ft Heading 165
Runway 34 Length 8038 ft Width 140 ft
Elevation 768 ft Threshold 0 ft Heading 345
Airport Frequencies
Type APP Name APP Frequency 120.3 MHZ
Type ATIS Name ATIS Frequency 130.125 MHZ
Type TWR Name TWR Frequency 118.5 MHZ
Airport Navaids
Type NDB Name Skopje Frequency 442 KHZ
Type VOR-DME Name Sinko Frequency 111450 KHZ
Type VOR-DME Name Skopje Frequency 112800 KHZ
Airport Weather Information & NOTAM
ADDS - METARS form results

(1006 UTC 17 November 2019)
Data provider http://aviationweather.gov/metar/data/
 
METAR text: LWSK 171000Z 28002KT 5000 BR SCT010 09/09 Q1019 NOSIG
Conditions at: LWSK (SKOPJE/PETROVAC , MK) observed 1000 UTC 17 November 2019
Temperature: 9.0°C (48°F)
Dewpoint: 9.0°C (48°F) [RH = 100%]
Pressure (altimeter): 30.09 inches Hg (1019.0 mb)
Winds: from the W (280 degrees) at 2 MPH (2 knots; 1.0 m/s)
Visibility: 3 miles ( 5 km)
Ceiling: at least 12,000 feet AGL
Clouds: scattered clouds at 1000 feet AGL
Weather: BR  (mist)

METAR text: LWSK 170930Z VRB01KT 3500 BR SCT010 09/09 Q1020 BECMG 5000 SCT015
Conditions at: LWSK (SKOPJE/PETROVAC , MK) observed 0930 UTC 17 November 2019
Temperature: 9.0°C (48°F)
Dewpoint: 9.0°C (48°F) [RH = 100%]
Pressure (altimeter): 30.12 inches Hg (1020.0 mb)
Winds: variable direction winds at 1 MPH (1 knots; 0.5 m/s)
Visibility: 2.17 miles (3.49 km)
Ceiling: at least 12,000 feet AGL
Clouds: scattered clouds at 1000 feet AGL
Weather: BR  (mist)

Forecast for: LWSK (SKOPJE/PETROVAC , MK)
Text: TAF LWSK 170830Z 1709/1809 VRB02KT 0350 FG BKN002
Forecast period: 0900 to 1000 UTC 17 November 2019
Forecast type: FROM: standard forecast or significant change
Winds: variable direction winds at 2 MPH (2 knots; 1.0 m/s)
Visibility: 0.22 miles (0.35 km)
Ceiling: 200 feet AGL
Clouds: broken clouds at 200 feet AGL
Weather: FG  (fog)
Text: BECMG 1710/1712 1500 BR SCT005 SCT090
Forecast period: 1000 to 1100 UTC 17 November 2019
Forecast type: BECOMING: Conditions expected to become as follows by 1200 UTC 17 November 2019
Winds: variable direction winds at 2 MPH (2 knots; 1.0 m/s)
Visibility: 0.93 miles (1.50 km)
Ceiling: at least 12,000 feet AGL
Clouds: scattered clouds at 500 feet AGL
scattered clouds at 9000 feet AGL
Weather: BR  (mist)
Text: BECMG 1711/1713 15012KT CAVOK
Forecast period: 1100 UTC 17 November 2019 to 0900 UTC 18 November 2019
Forecast type: BECOMING: Conditions expected to become as follows by 1300 UTC 17 November 2019
Winds: from the SSE (150 degrees) at 14 MPH (12 knots; 6.2 m/s)
Visibility: 6 or more miles 10+ km)
Ceiling: unknown
Clouds: missing
Weather: NSW  (no significant weather)